Time;durP1;ratioP1;P1;durP2;ratioP2;P2;SDS_P1;SDS_P2;PMS_P1;PMS_P2;Temp;Humidity;BMP_temperature;BMP_pressure;BME280_temperature;BME280_humidity;BME280_pressure;Samples;Min_cycle;Max_cycle;Signal;HPM_P1;HPM_P2
2021/09/11 00:00:06;;;;;;;;;;;;;;;;;;;;;
2021/09/11 00:02:58;;;;;;;;;0.00;0.00;;;;;19.36;64.02;101326.34;5082182;28;61878;-81
2021/09/11 00:06:04;;;;;;;;;;;;;;;;;;;;;
2021/09/11 00:12:54;;;;;;;;;0.00;0.00;;;;;18.86;63.62;101280.56;5038387;27;46815;-82
2021/09/11 00:19:28;;;;;;;;;0.00;0.00;;;;;19.59;63.87;101402.47;5072570;28;46149;-81
2021/09/11 00:25:49;;;;;;;;;;;;;;;;;;;;;
2021/09/11 00:28:51;;;;;;;;;0.00;0.00;;;;;19.11;63.43;101316.22;5061945;28;62315;-80
2021/09/11 00:31:45;;;;;;;;;0.00;0.00;;;;;18.86;63.88;101270.00;5093361;27;45560;-80
2021/09/11 00:34:27;;;;;;;;;0.00;0.00;;;;;18.69;64.20;101248.34;5101661;27;45325;-80
2021/09/11 00:37:41;;;;;;;;;;;;;;;;;;;;;
2021/09/11 00:43:06;;;;;;;;;0.00;0.00;;;;;19.51;63.28;101409.66;5082884;28;46543;-81
2021/09/11 00:45:45;;;;;;;;;;;;;;;;;;;;;
2021/09/11 00:48:22;;;;;;;;;0.00;0.00;;;;;18.99;63.60;101319.94;5083138;28;69706;-81
2021/09/11 00:51:16;;;;;;;;;0.00;0.00;;;;;18.45;63.21;101229.41;5085885;28;45494;-84
2021/09/11 00:54:23;;;;;;;;;;;;;;;;;;;;;
2021/09/11 00:56:51;;;;;;;;;0.00;0.00;;;;;18.66;63.21;101275.63;5056887;28;73459;-80
2021/09/11 00:59:37;;;;;;;;;0.00;0.00;;;;;18.91;63.44;101317.41;5082272;28;45555;-80
2021/09/11 01:02:24;;;;;;;;;0.00;0.00;;;;;18.64;63.44;101284.44;5079281;28;46020;-80
2021/09/11 01:05:17;;;;;;;;;0.00;0.00;;;;;18.41;63.42;101256.72;5061127;28;47071;-81
2021/09/11 01:07:51;;;;;;;;;0.00;0.00;;;;;19.02;63.43;101358.56;5063375;28;45339;-81
2021/09/11 01:10:55;;;;;;;;;0.00;0.00;;;;;19.69;63.51;101455.97;5082812;28;46201;-80
2021/09/11 01:13:29;;;;;;;;;0.00;0.00;;;;;18.63;63.29;101280.09;5082469;27;45701;-81
2021/09/11 01:15:59;;;;;;;;;0.00;0.00;;;;;19.13;63.41;101375.13;5080094;28;47146;-81
2021/09/11 01:18:44;;;;;;;;;;;;;;;;;;;;;
2021/09/11 01:25:21;;;;;;;;;0.00;0.00;;;;;19.28;63.89;101425.88;5078660;28;45539;-83
2021/09/11 01:31:59;;;;;;;;;;;;;;;;;;;;;
2021/09/11 01:39:13;;;;;;;;;;;;;;;;;;;;;
2021/09/11 01:42:02;;;;;;;;;;;;;;;;;;;;;
2021/09/11 01:48:11;;;;;;;;;0.00;0.00;;;;;19.40;63.42;101489.03;5080547;27;45387;-83
2021/09/11 01:51:18;;;;;;;;;;;;;;;;;;;;;
2021/09/11 01:54:25;;;;;;;;;0.50;0.00;;;;;17.94;62.82;101260.00;5105278;27;75039;-82
2021/09/11 01:57:11;;;;;;;;;0.00;0.00;;;;;19.23;63.41;101484.91;5091921;27;45686;-83
2021/09/11 01:59:46;;;;;;;;;0.00;0.00;;;;;19.18;63.05;101483.22;5090117;27;45326;-82
2021/09/11 02:02:37;;;;;;;;;0.00;0.00;;;;;17.80;63.08;101260.19;5110190;27;45254;-82
2021/09/11 02:05:15;;;;;;;;;0.00;0.00;;;;;17.79;62.93;101258.47;5078970;27;45805;-81
2021/09/11 02:07:46;;;;;;;;;0.00;0.00;;;;;17.69;63.34;101266.47;5105960;27;45476;-81
2021/09/11 02:10:27;;;;;;;;;0.00;0.00;;;;;18.36;63.06;101370.09;5106490;27;45249;-81
2021/09/11 02:12:58;;;;;;;;;0.00;0.00;;;;;18.53;63.08;101405.91;5087923;27;45350;-81
2021/09/11 02:15:24;;;;;;;;;0.00;0.00;;;;;18.93;63.20;101473.03;5087768;27;45798;-81
2021/09/11 02:17:50;;;;;;;;;0.00;0.00;;;;;18.45;63.14;101398.97;5088326;27;45304;-80
2021/09/11 02:20:25;;;;;;;;;0.00;0.00;;;;;18.11;62.79;101362.53;5088539;27;45803;-81
2021/09/11 02:22:59;;;;;;;;;0.00;0.00;;;;;18.72;63.31;101446.91;5090059;27;45608;-80
2021/09/11 02:25:39;;;;;;;;;0.00;0.00;;;;;18.94;63.37;101478.28;5087324;27;47370;-81
2021/09/11 02:28:05;;;;;;;;;0.00;0.00;;;;;17.60;63.03;101261.31;5086609;27;45282;-80
2021/09/11 02:30:36;;;;;;;;;0.00;0.00;;;;;18.38;62.66;101386.78;5104136;27;45326;-80
2021/09/11 02:33:15;;;;;;;;;0.00;0.00;;;;;17.42;63.13;101220.28;5105293;27;45452;-81
2021/09/11 02:35:46;;;;;;;;;0.00;0.00;;;;;17.39;62.45;101218.56;5085835;27;46989;-81
2021/09/11 02:38:17;;;;;;;;;0.00;0.00;;;;;17.79;62.37;101280.38;5086794;27;45355;-80
2021/09/11 02:40:52;;;;;;;;;0.00;0.00;;;;;18.34;62.58;101380.66;5087526;27;45303;-81
2021/09/11 02:43:22;;;;;;;;;0.00;0.00;;;;;17.56;62.85;101251.72;5087889;27;45604;-81
2021/09/11 02:45:50;;;;;;;;;0.00;0.00;;;;;17.65;62.21;101258.63;5087136;27;47328;-81
2021/09/11 02:48:30;;;;;;;;;0.00;0.00;;;;;17.93;62.30;101305.66;5105934;27;45354;-82
2021/09/11 02:51:30;;;;;;;;;;;;;;;;;;;;;
2021/09/11 02:54:12;;;;;;;;;0.00;0.00;;;;;18.90;62.54;101492.41;5102442;27;62304;-82
2021/09/11 02:57:04;;;;;;;;;0.00;0.00;;;;;18.91;62.52;101472.16;5088710;27;45484;-82
2021/09/11 02:59:46;;;;;;;;;0.00;0.00;;;;;18.06;62.58;101330.06;5092589;27;45508;-83
2021/09/11 03:02:24;;;;;;;;;0.00;0.00;;;;;18.94;62.45;101485.31;5088742;27;45488;-82
2021/09/11 03:08:30;;;;;;;;;0.00;0.00;;;;;18.74;62.77;101494.38;5074809;27;46724;-83
2021/09/11 03:11:33;;;;;;;;;0.00;0.00;;;;;18.25;62.68;101401.00;5089332;27;46682;-82
2021/09/11 03:14:33;;;;;;;;;0.00;0.00;;;;;17.30;63.19;101268.69;5088988;27;45374;-82
2021/09/11 03:17:10;;;;;;;;;0.00;0.00;;;;;17.82;63.46;101350.56;5089022;27;45303;-81
2021/09/11 03:19:48;;;;;;;;;1.00;0.00;;;;;18.19;63.28;101396.69;5089897;27;45760;-81
2021/09/11 03:22:27;;;;;;;;;0.00;0.00;;;;;18.45;63.14;101435.00;5088829;27;45516;-82
2021/09/11 03:24:53;;;;;;;;;0.00;0.00;;;;;17.34;62.70;101244.09;5090973;27;45256;-82
2021/09/11 03:27:32;;;;;;;;;1.00;0.00;;;;;18.17;63.02;101385.28;5087607;27;45663;-83
2021/09/11 03:30:05;;;;;;;;;0.00;0.00;;;;;17.38;62.52;101250.16;5088139;27;45414;-82
2021/09/11 03:32:44;;;;;;;;;0.00;0.00;;;;;18.75;62.57;101464.50;5086700;27;45506;-82
2021/09/11 03:35:31;;;;;;;;;1.00;0.00;;;;;18.77;62.53;101485.56;5106388;27;45393;-82
2021/09/11 03:37:57;;;;;;;;;0.00;0.00;;;;;17.27;62.50;101247.69;5073966;28;45391;-81
2021/09/11 03:41:11;;;;;;;;;0.00;0.00;;;;;18.38;62.56;101428.97;5086963;28;45585;-81
2021/09/11 03:43:55;;;;;;;;;0.00;0.00;;;;;17.00;63.01;101212.84;5070199;28;45268;-82
2021/09/11 03:46:38;;;;;;;;;0.00;0.00;;;;;17.35;63.06;101301.06;5068977;28;45249;-81
2021/09/11 03:52:22;;;;;;;;;0.00;0.00;;;;;18.26;62.69;101421.19;5099480;27;45452;-80
2021/09/11 03:55:14;;;;;;;;;0.00;0.00;;;;;17.80;62.83;101345.31;5087152;27;45337;-80
2021/09/11 03:58:03;;;;;;;;;0.00;0.00;;;;;17.14;63.02;101223.25;5085700;27;45256;-80
2021/09/11 04:00:54;;;;;;;;;1.00;0.00;;;;;18.30;62.67;101422.88;5069357;27;45741;-81
2021/09/11 04:03:19;;;;;;;;;0.00;0.00;;;;;17.48;62.68;101291.28;5099074;27;45406;-80
2021/09/11 04:05:45;;;;;;;;;0.00;0.00;;;;;17.46;62.50;101290.44;5096149;27;45321;-80
2021/09/11 04:08:10;;;;;;;;;0.00;0.00;;;;;17.06;62.67;101239.09;5101099;27;45433;-80
2021/09/11 04:10:38;;;;;;;;;0.00;0.00;;;;;17.76;62.64;101379.63;5101463;27;45596;-80
2021/09/11 04:13:12;;;;;;;;;0.00;0.00;;;;;17.35;63.10;101303.72;5096943;27;45523;-80
2021/09/11 04:15:41;;;;;;;;;1.00;0.00;;;;;17.79;63.19;101390.13;5067610;28;45197;-80
2021/09/11 04:18:06;;;;;;;;;0.00;0.00;;;;;17.24;62.77;101292.44;5082976;28;44674;-79
2021/09/11 04:20:35;;;;;;;;;0.00;0.00;;;;;18.34;62.78;101486.09;5101354;28;45234;-80
2021/09/11 04:23:11;;;;;;;;;0.00;0.00;;;;;18.18;62.92;101471.34;5086906;28;45559;-80
2021/09/11 04:25:36;;;;;;;;;0.00;0.00;;;;;17.35;62.79;101328.28;5096494;27;45756;-80
2021/09/11 04:31:20;;;;;;;;;0.00;0.00;;;;;17.44;62.95;101347.47;5084940;27;45231;-80
2021/09/11 04:33:53;;;;;;;;;0.00;0.00;;;;;17.38;63.23;101353.69;5063568;28;45821;-80
2021/09/11 04:36:25;;;;;;;;;0.00;0.00;;;;;17.77;62.96;101420.84;5081728;28;45769;-79
2021/09/11 04:38:54;;;;;;;;;0.00;0.00;;;;;17.34;62.67;101341.44;5084092;27;45357;-80
2021/09/11 04:41:25;;;;;;;;;0.00;0.00;;;;;17.10;63.34;101293.44;5084606;27;45621;-81
2021/09/11 04:43:56;;;;;;;;;0.00;0.00;;;;;18.27;62.78;101487.06;5101989;27;45312;-80
2021/09/11 04:46:28;;;;;;;;;0.00;0.00;;;;;17.60;62.71;101374.50;5084525;27;45841;-80
2021/09/11 04:48:56;;;;;;;;;0.00;0.00;;;;;17.35;62.96;101337.91;5084936;27;45259;-80
2021/09/11 04:51:27;;;;;;;;;0.00;0.00;;;;;17.33;62.46;101337.94;5084475;27;45687;-80
2021/09/11 04:53:53;;;;;;;;;0.00;0.00;;;;;16.62;62.80;101228.09;5102432;27;45337;-80
2021/09/11 04:56:24;;;;;;;;;0.00;0.00;;;;;16.63;63.05;101241.22;5084487;27;45246;-79
2021/09/11 04:58:58;;;;;;;;;0.00;0.00;;;;;17.56;62.91;101404.38;5098288;27;45316;-80
2021/09/11 05:01:38;;;;;;;;;0.00;0.00;;;;;17.18;63.40;101357.34;5098381;27;45369;-81
2021/09/11 05:04:13;;;;;;;;;0.00;0.00;;;;;16.95;63.14;101300.56;5084150;27;45558;-81
2021/09/11 05:06:52;;;;;;;;;0.00;0.00;;;;;17.63;62.82;101410.44;5102033;27;45505;-80
2021/09/11 05:09:23;;;;;;;;;0.00;0.00;;;;;17.35;63.17;101377.38;5084656;27;45403;-81
2021/09/11 05:11:52;;;;;;;;;0.00;0.00;;;;;17.39;62.67;101375.59;5085069;27;45027;-80
2021/09/11 05:14:50;;;;;;;;;0.00;0.00;;;;;17.53;63.12;101404.41;5103701;27;46545;-82
2021/09/11 05:18:12;;;;;;;;;0.00;0.00;;;;;18.12;63.49;101506.53;5079548;27;45223;-82
2021/09/11 05:20:54;;;;;;;;;0.00;0.00;;;;;16.76;63.20;101293.72;5094794;27;45511;-82
2021/09/11 05:26:38;;;;;;;;;0.00;0.00;;;;;16.60;63.31;101280.69;5092136;28;45530;-81
2021/09/11 05:29:19;;;;;;;;;0.00;0.00;;;;;18.05;63.72;101512.72;5095604;27;45810;-81
2021/09/11 05:32:20;;;;;;;;;;;;;;;;;;;;;
2021/09/11 05:34:49;;;;;;;;;0.00;0.00;;;;;16.22;63.40;101227.53;5104372;27;64881;-80
2021/09/11 05:37:15;;;;;;;;;0.00;0.00;;;;;17.28;63.83;101436.22;5112545;27;46483;-80
2021/09/11 05:40:00;;;;;;;;;0.00;0.00;;;;;17.48;63.73;101455.34;5114295;27;45663;-81
2021/09/11 05:42:29;;;;;;;;;0.00;0.00;;;;;17.23;64.12;101444.13;5105032;27;45558;-80
2021/09/11 05:44:55;;;;;;;;;0.00;0.00;;;;;17.17;63.84;101399.47;5108219;27;45662;-81
2021/09/11 05:47:24;;;;;;;;;0.00;0.00;;;;;16.85;63.46;101335.72;5094839;27;47143;-79
2021/09/11 05:49:50;;;;;;;;;0.00;0.00;;;;;17.58;63.38;101457.91;5092528;27;45326;-80
2021/09/11 05:52:28;;;;;;;;;0.00;0.00;;;;;17.51;63.39;101438.63;5110479;27;45486;-80
2021/09/11 05:54:53;;;;;;;;;1.00;0.00;;;;;18.10;63.71;101527.63;5087523;27;45288;-80
2021/09/11 05:57:22;;;;;;;;;0.00;0.00;;;;;17.32;63.02;101388.81;5113005;27;45394;-80
2021/09/11 05:59:47;;;;;;;;;0.00;0.00;;;;;16.56;63.63;101271.06;5114417;27;44818;-80
2021/09/11 06:02:13;;;;;;;;;0.00;0.00;;;;;18.26;63.12;101535.38;5099674;27;45216;-80
2021/09/11 06:04:41;;;;;;;;;0.00;0.00;;;;;18.00;62.94;101498.75;5099594;27;45774;-79
2021/09/11 06:07:48;;;;;;;;;;;;;;;;;;;;;
2021/09/11 06:10:45;;;;;;;;;;;;;;;;;;;;;
2021/09/11 06:13:22;;;;;;;;;0.00;0.00;;;;;16.81;63.11;101336.59;5102731;27;67573;-80
2021/09/11 06:16:34;;;;;;;;;0.00;0.00;;;;;17.46;62.73;101446.56;5112221;27;45271;-81
2021/09/11 06:19:32;;;;;;;;;0.00;0.00;;;;;16.55;62.90;101312.28;5106046;27;45428;-83
2021/09/11 06:26:41;;;;;;;;;;;;;;;;;;;;;
2021/09/11 06:29:13;;;;;;;;;0.75;0.00;;;;;17.16;63.21;101422.28;5022129;28;62280;-81
2021/09/11 06:31:54;;;;;;;;;0.00;0.00;;;;;18.06;63.10;101575.06;5042225;28;47351;-81
2021/09/11 06:35:03;;;;;;;;;0.00;0.00;;;;;16.97;63.24;101380.28;5102216;27;45389;-82
2021/09/11 06:37:43;;;;;;;;;0.75;0.00;;;;;17.22;62.69;101419.56;5103931;27;45855;-80
2021/09/11 06:40:13;;;;;;;;;0.00;0.00;;;;;17.96;62.92;101553.22;5102080;27;45467;-79
2021/09/11 06:42:39;;;;;;;;;0.00;0.00;;;;;17.80;63.13;101536.69;5084182;27;47052;-80
2021/09/11 06:45:05;;;;;;;;;0.00;0.00;;;;;18.05;63.30;101574.22;5084260;27;45462;-80
2021/09/11 06:47:30;;;;;;;;;0.00;0.00;;;;;17.95;63.12;101544.44;5104113;27;45461;-80
2021/09/11 06:49:55;;;;;;;;;0.25;0.25;;;;;17.88;62.97;101545.38;5103401;27;45447;-79
2021/09/11 06:52:21;;;;;;;;;0.00;0.00;;;;;18.16;63.31;101570.63;5103047;27;46040;-80
2021/09/11 06:54:47;;;;;;;;;0.00;0.00;;;;;18.15;63.07;101567.09;5085236;27;45371;-79
2021/09/11 06:57:13;;;;;;;;;1.00;0.00;;;;;17.98;62.91;101554.09;5102372;27;45422;-80
2021/09/11 06:59:38;;;;;;;;;0.00;0.00;;;;;17.92;63.05;101541.81;5083484;27;45338;-79
2021/09/11 07:02:03;;;;;;;;;0.25;0.25;;;;;17.87;63.10;101530.47;5084879;27;47380;-79
2021/09/11 07:04:29;;;;;;;;;0.00;0.00;;;;;18.08;62.80;101562.75;5083542;27;45523;-78
2021/09/11 07:06:54;;;;;;;;;0.00;0.00;;;;;18.00;62.54;101559.34;5102415;27;45664;-79
2021/09/11 07:09:19;;;;;;;;;0.00;0.00;;;;;18.00;62.92;101556.72;5105925;27;45353;-79
2021/09/11 07:11:45;;;;;;;;;0.00;0.00;;;;;18.16;62.63;101587.28;5101851;27;45457;-78
2021/09/11 07:14:10;;;;;;;;;0.00;0.00;;;;;18.06;62.33;101549.59;5103827;27;45332;-79
2021/09/11 07:17:43;;;;;;;;;0.00;0.00;;;;;17.73;62.10;101486.69;5104898;27;45418;-80
2021/09/11 07:23:44;;;;;;;;;0.00;0.00;;;;;18.16;62.25;101549.56;5057153;28;45644;-81
2021/09/11 07:26:51;;;;;;;;;0.00;0.00;;;;;18.53;62.04;101595.72;5002521;28;45604;-79
2021/09/11 07:32:48;;;;;;;;;0.75;0.00;;;;;18.53;61.29;101587.81;5017652;28;45550;-78
2021/09/11 07:35:35;;;;;;;;;0.00;0.00;;;;;17.50;61.36;101410.59;5075941;27;48748;-83
2021/09/11 07:45:05;;;;;;;;;0.00;0.00;;;;;18.27;61.10;101504.63;5095823;27;45485;-78
2021/09/11 07:48:10;;;;;;;;;0.00;0.00;;;;;17.20;60.68;101310.88;5086979;27;45576;-80
2021/09/11 07:50:37;;;;;;;;;0.00;0.00;;;;;18.50;61.30;101522.81;5101414;27;45219;-82
2021/09/11 07:53:14;;;;;;;;;0.00;0.00;;;;;17.73;60.48;101417.34;5119892;27;45407;-77
2021/09/11 07:56:02;;;;;;;;;0.00;0.00;;;;;18.92;60.20;101609.31;5087260;27;45575;-81
2021/09/11 07:59:02;;;;;;;;;0.00;0.00;;;;;18.84;60.25;101611.19;5083068;27;46329;-81
2021/09/11 08:05:31;;;;;;;;;0.00;0.00;;;;;18.95;59.98;101604.00;5102242;27;45449;-79
2021/09/11 08:08:27;;;;;;;;;1.00;0.00;;;;;17.85;60.07;101438.31;5099716;27;45460;-83
2021/09/11 08:11:03;;;;;;;;;0.00;0.00;;;;;18.94;60.69;101618.09;5076908;27;47062;-80
2021/09/11 08:14:10;;;;;;;;;;;;;;;;;;;;;
2021/09/11 08:20:22;;;;;;;;;0.00;0.00;;;;;17.54;58.61;101358.75;5033043;28;45314;-80
2021/09/11 08:23:09;;;;;;;;;0.00;0.00;;;;;18.71;58.18;101573.53;5094624;27;45673;-79
2021/09/11 08:29:05;;;;;;;;;0.00;0.00;;;;;17.77;58.08;101405.94;5033057;28;45565;-77
2021/09/11 08:31:55;;;;;;;;;0.00;0.00;;;;;18.90;57.79;101579.47;5105467;27;45581;-81
2021/09/11 08:34:42;;;;;;;;;0.00;0.00;;;;;18.13;57.22;101417.84;5108137;27;45405;-77
2021/09/11 08:37:21;;;;;;;;;0.25;0.00;;;;;17.91;57.39;101387.31;5131167;27;45568;-78
2021/09/11 08:40:14;;;;;;;;;0.00;0.00;;;;;18.74;56.66;101526.91;5127339;27;45486;-78
2021/09/11 08:46:06;;;;;;;;;0.00;0.00;;;;;19.41;56.15;101600.81;5105502;27;45481;-85
2021/09/11 08:48:39;;;;;;;;;0.00;0.00;;;;;19.83;55.66;101653.84;5092702;27;45281;-81
2021/09/11 08:51:23;;;;;;;;;0.00;0.00;;;;;18.94;55.50;101504.66;5098864;27;45480;-82
2021/09/11 08:53:53;;;;;;;;;0.00;0.00;;;;;18.74;56.06;101449.53;5103379;27;45568;-80
2021/09/11 08:56:24;;;;;;;;;0.00;0.00;;;;;20.04;55.55;101643.88;5086011;27;48104;-79
2021/09/11 08:59:09;;;;;;;;;0.00;0.00;;;;;20.10;55.48;101638.50;5089461;27;45504;-79
2021/09/11 09:02:29;;;;;;;;;1.25;0.50;;;;;20.18;55.44;101635.69;5094001;27;45462;-76
2021/09/11 09:05:12;;;;;;;;;1.00;0.00;;;;;20.27;54.70;101634.66;5109355;27;45487;-76
2021/09/11 09:07:48;;;;;;;;;0.00;0.00;;;;;19.03;54.55;101416.59;5089190;27;46916;-76
2021/09/11 09:10:35;;;;;;;;;0.50;0.00;;;;;19.46;53.84;101512.72;5101864;27;45405;-79
2021/09/11 09:13:02;;;;;;;;;0.00;0.00;;;;;20.22;54.07;101637.38;5094706;27;45430;-79
2021/09/11 09:15:28;;;;;;;;;1.00;0.00;;;;;19.19;53.36;101461.22;5127127;27;45510;-82
2021/09/11 09:18:03;;;;;;;;;0.00;0.00;;;;;19.71;53.20;101541.34;5109036;27;46094;-79
2021/09/11 09:20:52;;;;;;;;;0.00;0.00;;;;;19.63;52.82;101512.41;5102137;27;45231;-80
2021/09/11 09:23:22;;;;;;;;;0.00;0.00;;;;;19.77;52.70;101540.38;5083997;27;45508;-82
2021/09/11 09:25:59;;;;;;;;;0.00;0.00;;;;;20.22;53.01;101583.66;5114202;27;45244;-80
2021/09/11 09:28:36;;;;;;;;;0.00;0.00;;;;;20.66;52.94;101641.00;5103173;27;45779;-81
2021/09/11 09:31:09;;;;;;;;;0.00;0.00;;;;;19.56;52.12;101443.88;5105738;27;45419;-80
2021/09/11 09:33:55;;;;;;;;;0.00;0.00;;;;;20.16;51.83;101544.09;5087743;27;45488;-78
2021/09/11 09:36:21;;;;;;;;;0.00;0.00;;;;;20.28;51.96;101572.09;5087424;27;45400;-84
2021/09/11 09:39:48;;;;;;;;;0.00;0.00;;;;;20.74;52.26;101644.38;5094858;27;46203;-82
2021/09/11 09:46:26;;;;;;;;;0.00;0.00;;;;;20.65;51.76;101589.88;5028874;28;45458;-79
2021/09/11 09:52:53;;;;;;;;;0.00;0.00;;;;;21.17;52.23;101633.81;5025035;28;46405;-81
2021/09/11 09:58:45;;;;;;;;;0.00;0.00;;;;;20.55;50.52;101546.00;5057267;28;45470;-78
2021/09/11 10:01:27;;;;;;;;;0.00;0.00;;;;;20.15;50.48;101498.28;5046781;28;45557;-82
2021/09/11 10:04:13;;;;;;;;;0.00;0.00;;;;;20.80;51.10;101620.44;5065942;28;46193;-79
2021/09/11 10:07:19;;;;;;;;;0.00;0.00;;;;;19.71;50.84;101440.97;5048592;28;45285;-80
2021/09/11 10:10:06;;;;;;;;;0.00;0.00;;;;;20.11;50.98;101520.41;5050557;28;45728;-78
2021/09/11 10:12:42;;;;;;;;;0.00;0.00;;;;;19.74;51.13;101482.31;5070700;28;45639;-79
2021/09/11 10:15:34;;;;;;;;;0.00;0.00;;;;;20.55;51.74;101622.72;5050751;28;47273;-78
2021/09/11 10:17:59;;;;;;;;;0.00;0.00;;;;;20.50;51.03;101617.50;5049277;28;45506;-80
2021/09/11 10:20:26;;;;;;;;;0.00;0.00;;;;;20.41;50.92;101637.06;5073701;27;46905;-80
2021/09/11 10:23:14;;;;;;;;;0.00;0.00;;;;;20.31;51.70;101620.50;5066522;27;45373;-80
2021/09/11 10:25:47;;;;;;;;;0.00;0.00;;;;;20.45;51.97;101628.16;5062326;28;47117;-81
2021/09/11 10:28:15;;;;;;;;;0.00;0.00;;;;;20.43;50.89;101590.28;5082497;27;45457;-80
2021/09/11 10:31:04;;;;;;;;;0.00;0.00;;;;;20.68;50.81;101615.41;5068708;28;45488;-81
2021/09/11 10:33:47;;;;;;;;;0.00;0.00;;;;;20.55;51.10;101575.94;5076916;28;45453;-79
2021/09/11 10:36:43;;;;;;;;;0.00;0.00;;;;;20.74;51.23;101607.34;5107798;27;45483;-80
2021/09/11 10:39:10;;;;;;;;;0.00;0.00;;;;;21.01;50.70;101620.94;5067116;28;45426;-79
2021/09/11 10:41:36;;;;;;;;;0.00;0.00;;;;;21.11;50.25;101597.78;5083356;27;45567;-79
2021/09/11 10:44:05;;;;;;;;;0.00;0.00;;;;;21.23;49.84;101612.53;5066298;28;45472;-79
2021/09/11 10:46:57;;;;;;;;;0.00;0.00;;;;;21.26;50.17;101609.81;5092583;28;45512;-79
2021/09/11 10:49:28;;;;;;;;;0.00;0.00;;;;;21.27;49.81;101609.78;5082380;27;45327;-82
2021/09/11 10:52:05;;;;;;;;;0.00;0.00;;;;;21.20;50.32;101608.19;5072614;27;45385;-79
2021/09/11 10:54:45;;;;;;;;;0.00;0.00;;;;;20.59;49.35;101519.47;5068777;27;45778;-79
2021/09/11 10:57:15;;;;;;;;;0.00;0.00;;;;;20.95;49.84;101615.78;5066500;27;45833;-80
2021/09/11 10:59:46;;;;;;;;;0.00;0.00;;;;;20.26;50.58;101537.75;5067911;28;45542;-76
2021/09/11 11:02:22;;;;;;;;;0.00;0.00;;;;;20.39;51.17;101570.09;5085027;27;46291;-82
2021/09/11 11:05:17;;;;;;;;;0.00;0.00;;;;;20.77;50.78;101612.56;5070170;27;45710;-79
2021/09/11 11:07:46;;;;;;;;;0.25;0.25;;;;;20.72;51.28;101588.84;5085498;27;45476;-80
2021/09/11 11:10:14;;;;;;;;;0.00;0.00;;;;;20.60;51.24;101552.94;5071056;27;45457;-78
2021/09/11 11:12:50;;;;;;;;;0.00;0.00;;;;;20.77;51.32;101575.53;5085156;27;45294;-82
2021/09/11 11:15:27;;;;;;;;;0.00;0.00;;;;;20.86;50.90;101569.19;5076518;28;45327;-82
2021/09/11 11:17:53;;;;;;;;;0.00;0.00;;;;;21.19;51.02;101608.22;5076503;28;48485;-82
2021/09/11 11:20:28;;;;;;;;;0.00;0.00;;;;;21.06;50.61;101611.09;5083009;27;45239;-82
2021/09/11 11:22:57;;;;;;;;;0.00;0.00;;;;;20.75;50.75;101543.81;5088061;27;45323;-82
2021/09/11 11:25:36;;;;;;;;;0.00;0.00;;;;;21.19;50.44;101621.44;5082038;27;45636;-82
2021/09/11 11:28:07;;;;;;;;;0.00;0.00;;;;;21.22;50.03;101614.28;5074849;27;46386;-81
2021/09/11 11:30:37;;;;;;;;;0.00;0.00;;;;;20.87;50.39;101540.03;5081018;27;45330;-82
2021/09/11 11:33:05;;;;;;;;;0.00;0.00;;;;;21.17;50.20;101583.53;5072398;27;45343;-82
2021/09/11 11:35:31;;;;;;;;;0.00;0.00;;;;;21.27;50.30;101606.25;5075940;27;45529;-82
2021/09/11 11:37:57;;;;;;;;;0.00;0.00;;;;;21.20;50.27;101573.75;5078784;27;45648;-82
2021/09/11 11:40:24;;;;;;;;;0.00;0.00;;;;;21.42;50.09;101599.72;5084753;27;45416;-82
2021/09/11 11:42:50;;;;;;;;;1.00;0.00;;;;;21.47;49.84;101576.63;5088436;27;45343;-82
2021/09/11 11:45:17;;;;;;;;;0.00;0.00;;;;;21.76;49.99;101609.56;5084889;27;45455;-82
2021/09/11 11:47:48;;;;;;;;;0.00;0.00;;;;;21.62;49.31;101567.44;5084564;27;47215;-82
2021/09/11 11:50:32;;;;;;;;;0.00;0.00;;;;;21.40;48.52;101508.84;5085105;27;45305;-82
2021/09/11 11:53:07;;;;;;;;;1.00;0.00;;;;;21.80;48.51;101570.59;5096477;27;45423;-81
2021/09/11 11:55:38;;;;;;;;;0.00;0.00;;;;;21.56;48.17;101506.69;5106274;27;44873;-83
2021/09/11 11:58:13;;;;;;;;;0.00;0.00;;;;;21.87;47.83;101542.16;5090613;27;46407;-81
2021/09/11 12:04:24;;;;;;;;;0.00;0.00;;;;;21.95;48.08;101518.06;5059529;28;45368;-82
2021/09/11 12:07:31;;;;;;;;;0.00;0.00;;;;;22.36;48.14;101584.16;5055018;27;45612;-82
2021/09/11 12:23:57;;;;;;;;;0.00;0.00;;;;;22.23;46.28;101534.09;5080425;27;45572;-82
2021/09/11 12:27:21;;;;;;;;;0.00;0.00;;;;;22.49;46.93;101585.56;5089905;27;45308;-82
2021/09/11 12:31:16;;;;;;;;;;;;;;;;;;;;;
2021/09/11 12:34:59;;;;;;;;;0.75;0.00;;;;;20.92;46.50;101332.69;5019048;28;61548;-82
2021/09/11 12:38:01;;;;;;;;;0.00;0.00;;;;;21.64;46.49;101458.81;4998641;28;48149;-81
2021/09/11 12:41:11;;;;;;;;;0.00;0.00;;;;;21.78;46.53;101455.81;4980098;28;45512;-81
2021/09/11 12:47:31;;;;;;;;;0.00;0.00;;;;;22.46;46.70;101572.38;4966778;28;45621;-81
2021/09/11 12:54:35;;;;;;;;;0.75;0.00;;;;;21.33;46.16;101372.22;4947832;28;45497;-81
2021/09/11 12:57:45;;;;;;;;;0.00;0.00;;;;;22.51;47.06;101577.56;4956334;28;45445;-81
2021/09/11 13:04:53;;;;;;;;;;;;;;;;;;;;;
2021/09/11 13:07:58;;;;;;;;;;;;;;;;;;;;;
2021/09/11 13:10:26;;;;;;;;;0.00;0.00;;;;;21.21;46.73;101360.16;4997072;28;67872;-80
2021/09/11 13:13:13;;;;;;;;;0.00;0.00;;;;;21.75;46.36;101454.09;5016654;28;45419;-81
2021/09/11 13:16:09;;;;;;;;;0.00;0.00;;;;;22.45;46.18;101548.56;5002148;28;45377;-83
2021/09/11 13:18:38;;;;;;;;;0.00;0.00;;;;;22.11;46.33;101476.13;5000637;28;45625;-81
2021/09/11 13:21:24;;;;;;;;;0.00;0.00;;;;;22.56;45.64;101542.91;4999853;28;45656;-80
2021/09/11 13:23:57;;;;;;;;;0.00;0.00;;;;;22.18;46.12;101451.19;4983505;28;46806;-80
2021/09/11 13:26:28;;;;;;;;;0.00;0.00;;;;;22.88;45.78;101539.34;5024042;27;47025;-79
2021/09/11 13:28:54;;;;;;;;;0.00;0.00;;;;;23.11;45.66;101543.06;5104806;27;45360;-78
2021/09/11 13:34:12;;;;;;;;;0.00;0.00;;;;;22.39;44.66;101407.22;5091778;27;45872;-80
2021/09/11 13:36:38;;;;;;;;;0.00;0.00;;;;;23.16;44.49;101527.84;5105457;27;45464;-80
2021/09/11 13:39:04;;;;;;;;;0.00;0.00;;;;;23.09;44.64;101510.38;5102551;27;45486;-81
2021/09/11 13:42:12;;;;;;;;;0.00;0.00;;;;;21.86;44.18;101305.44;5104795;27;45455;-84
2021/09/11 13:44:49;;;;;;;;;0.00;0.00;;;;;22.51;44.14;101435.16;5109708;27;45571;-81
2021/09/11 13:47:23;;;;;;;;;0.00;0.00;;;;;23.06;44.19;101538.81;5107888;27;45243;-80
2021/09/11 13:49:48;;;;;;;;;0.50;0.00;;;;;21.93;44.36;101388.25;5126136;27;45847;-83
2021/09/11 13:52:16;;;;;;;;;0.00;0.00;;;;;22.15;44.58;101414.16;5116108;27;45503;-80
2021/09/11 13:54:44;;;;;;;;;0.00;0.00;;;;;22.88;44.35;101535.84;5124684;27;45480;-82
2021/09/11 13:57:15;;;;;;;;;2.00;0.00;;;;;22.77;45.01;101537.03;5116410;27;45440;-82
2021/09/11 13:59:56;;;;;;;;;0.00;0.00;;;;;22.62;45.02;101525.09;5115088;27;45531;-84
2021/09/11 14:02:36;;;;;;;;;0.00;0.00;;;;;22.80;43.74;101538.72;5111497;27;45400;-84
2021/09/11 14:05:10;;;;;;;;;0.00;0.00;;;;;22.14;44.72;101425.66;5098410;27;45613;-86
2021/09/11 14:08:00;;;;;;;;;1.00;0.00;;;;;22.77;44.85;101521.09;5115045;27;45410;-85
2021/09/11 14:14:24;;;;;;;;;0.00;0.00;;;;;22.14;44.42;101388.53;5111556;27;45149;-84
2021/09/11 14:16:50;;;;;;;;;0.00;0.00;;;;;23.08;43.65;101535.19;5089059;27;45553;-79
2021/09/11 14:19:16;;;;;;;;;0.00;0.00;;;;;22.45;43.76;101415.94;5108426;27;46184;-81
2021/09/11 14:21:44;;;;;;;;;0.00;0.00;;;;;;;;5088996;27;45463;-83
2021/09/11 14:27:08;;;;;;;;;0.00;0.00;;;;;22.64;43.91;101458.72;5102153;27;45307;-83
2021/09/11 14:29:38;;;;;;;;;0.00;0.00;;;;;22.91;43.73;101502.09;5123035;27;45522;-81
2021/09/11 14:36:12;;;;;;;;;0.00;0.00;;;;;23.31;43.62;101524.75;5098515;27;45839;-83
2021/09/11 14:38:59;;;;;;;;;0.00;0.00;;;;;23.20;44.07;101499.41;4987558;28;45424;-82
2021/09/11 14:41:31;;;;;;;;;0.00;0.00;;;;;22.45;43.81;101387.59;5010811;28;45728;-82
2021/09/11 14:43:57;;;;;;;;;0.00;0.00;;;;;22.59;44.02;101410.22;5092846;27;45378;-83
2021/09/11 14:46:23;;;;;;;;;0.00;0.00;;;;;22.56;43.97;101419.09;5091704;27;45591;-75
2021/09/11 14:48:48;;;;;;;;;0.00;0.00;;;;;23.41;43.57;101539.50;5102688;27;45494;-81
2021/09/11 14:51:14;;;;;;;;;0.00;0.00;;;;;23.38;43.89;101521.88;5102952;27;45344;-80
2021/09/11 14:53:39;;;;;;;;;0.00;0.00;;;;;23.51;43.70;101540.94;5103884;27;45410;-81
2021/09/11 14:56:05;;;;;;;;;1.00;0.00;;;;;23.29;43.45;101506.22;5094575;27;45339;-81
2021/09/11 14:58:30;;;;;;;;;0.00;0.00;;;;;23.40;43.87;101532.47;5108478;27;45461;-76